sensor_id;sensor_type;location;lat;lon;timestamp;P1;durP1;ratioP1;P2;durP2;ratioP2
36377;SDS011;22402;42.746;23.606;2023-05-14T00:00:23;2.60;;;2.40;;
36377;SDS011;22402;42.746;23.606;2023-05-14T00:02:48;4.10;;;2.30;;
36377;SDS011;22402;42.746;23.606;2023-05-14T00:05:14;2.43;;;2.00;;
36377;SDS011;22402;42.746;23.606;2023-05-14T00:07:39;2.57;;;2.30;;
36377;SDS011;22402;42.746;23.606;2023-05-14T00:10:05;2.73;;;2.03;;
36377;SDS011;22402;42.746;23.606;2023-05-14T00:12:31;2.47;;;2.27;;
36377;SDS011;22402;42.746;23.606;2023-05-14T00:14:56;3.27;;;2.77;;
36377;SDS011;22402;42.746;23.606;2023-05-14T00:17:22;2.37;;;2.17;;
36377;SDS011;22402;42.746;23.606;2023-05-14T00:19:47;2.20;;;2.00;;
36377;SDS011;22402;42.746;23.606;2023-05-14T00:22:13;2.70;;;2.17;;
36377;SDS011;22402;42.746;23.606;2023-05-14T00:24:38;2.70;;;2.10;;
36377;SDS011;22402;42.746;23.606;2023-05-14T00:27:04;2.37;;;2.10;;
36377;SDS011;22402;42.746;23.606;2023-05-14T00:29:30;2.60;;;2.03;;
36377;SDS011;22402;42.746;23.606;2023-05-14T00:31:55;2.20;;;1.97;;
36377;SDS011;22402;42.746;23.606;2023-05-14T00:34:21;2.13;;;1.93;;
36377;SDS011;22402;42.746;23.606;2023-05-14T00:36:46;3.20;;;2.43;;
36377;SDS011;22402;42.746;23.606;2023-05-14T00:39:12;3.90;;;2.10;;
36377;SDS011;22402;42.746;23.606;2023-05-14T00:41:38;2.67;;;2.23;;
36377;SDS011;22402;42.746;23.606;2023-05-14T00:44:03;2.70;;;2.10;;
36377;SDS011;22402;42.746;23.606;2023-05-14T00:46:29;1.97;;;1.77;;
36377;SDS011;22402;42.746;23.606;2023-05-14T00:48:55;1.80;;;1.70;;
36377;SDS011;22402;42.746;23.606;2023-05-14T00:51:21;2.13;;;1.93;;
36377;SDS011;22402;42.746;23.606;2023-05-14T00:53:46;2.27;;;2.07;;
36377;SDS011;22402;42.746;23.606;2023-05-14T00:56:12;2.50;;;2.30;;
36377;SDS011;22402;42.746;23.606;2023-05-14T00:58:39;2.30;;;2.10;;
36377;SDS011;22402;42.746;23.606;2023-05-14T01:01:04;2.60;;;1.93;;
36377;SDS011;22402;42.746;23.606;2023-05-14T01:03:30;2.53;;;2.03;;
36377;SDS011;22402;42.746;23.606;2023-05-14T01:17:05;2.03;;;1.73;;
36377;SDS011;22402;42.746;23.606;2023-05-14T01:19:44;4.20;;;2.00;;
36377;SDS011;22402;42.746;23.606;2023-05-14T01:22:11;2.30;;;1.70;;
36377;SDS011;22402;42.746;23.606;2023-05-14T01:24:37;2.17;;;1.97;;
36377;SDS011;22402;42.746;23.606;2023-05-14T01:27:05;2.30;;;2.10;;
36377;SDS011;22402;42.746;23.606;2023-05-14T01:29:35;2.60;;;2.30;;
36377;SDS011;22402;42.746;23.606;2023-05-14T01:32:06;5.00;;;2.80;;
36377;SDS011;22402;42.746;23.606;2023-05-14T01:34:34;2.07;;;1.87;;
36377;SDS011;22402;42.746;23.606;2023-05-14T01:37:01;2.73;;;2.10;;
36377;SDS011;22402;42.746;23.606;2023-05-14T01:39:29;2.80;;;2.10;;
36377;SDS011;22402;42.746;23.606;2023-05-14T01:41:56;1.80;;;1.70;;
36377;SDS011;22402;42.746;23.606;2023-05-14T01:44:22;3.00;;;2.47;;
36377;SDS011;22402;42.746;23.606;2023-05-14T01:46:48;2.30;;;2.10;;
36377;SDS011;22402;42.746;23.606;2023-05-14T01:49:14;2.20;;;2.00;;
36377;SDS011;22402;42.746;23.606;2023-05-14T01:51:42;2.40;;;2.03;;
36377;SDS011;22402;42.746;23.606;2023-05-14T01:54:07;2.93;;;2.10;;
36377;SDS011;22402;42.746;23.606;2023-05-14T01:56:33;2.80;;;2.23;;
36377;SDS011;22402;42.746;23.606;2023-05-14T01:58:58;1.93;;;1.80;;
36377;SDS011;22402;42.746;23.606;2023-05-14T02:01:24;2.17;;;1.90;;
36377;SDS011;22402;42.746;23.606;2023-05-14T02:03:50;3.30;;;2.23;;
36377;SDS011;22402;42.746;23.606;2023-05-14T02:06:15;2.90;;;1.93;;
36377;SDS011;22402;42.746;23.606;2023-05-14T02:08:41;2.20;;;2.00;;
36377;SDS011;22402;42.746;23.606;2023-05-14T02:11:06;4.20;;;2.07;;
36377;SDS011;22402;42.746;23.606;2023-05-14T02:13:32;3.00;;;2.00;;
36377;SDS011;22402;42.746;23.606;2023-05-14T02:15:57;2.23;;;2.03;;
36377;SDS011;22402;42.746;23.606;2023-05-14T02:18:23;2.80;;;2.27;;
36377;SDS011;22402;42.746;23.606;2023-05-14T02:20:48;1.90;;;1.80;;
36377;SDS011;22402;42.746;23.606;2023-05-14T02:23:14;1.67;;;1.50;;
36377;SDS011;22402;42.746;23.606;2023-05-14T02:25:39;2.07;;;1.97;;
36377;SDS011;22402;42.746;23.606;2023-05-14T02:28:04;2.70;;;2.40;;
36377;SDS011;22402;42.746;23.606;2023-05-14T02:30:30;2.63;;;2.17;;
36377;SDS011;22402;42.746;23.606;2023-05-14T02:32:55;2.30;;;1.80;;
36377;SDS011;22402;42.746;23.606;2023-05-14T02:35:21;2.03;;;1.80;;
36377;SDS011;22402;42.746;23.606;2023-05-14T02:37:46;3.03;;;2.20;;
36377;SDS011;22402;42.746;23.606;2023-05-14T02:40:12;2.00;;;1.80;;
36377;SDS011;22402;42.746;23.606;2023-05-14T02:42:37;2.30;;;2.00;;
36377;SDS011;22402;42.746;23.606;2023-05-14T02:45:03;2.20;;;2.00;;
36377;SDS011;22402;42.746;23.606;2023-05-14T02:47:29;2.80;;;2.30;;
36377;SDS011;22402;42.746;23.606;2023-05-14T02:52:29;2.17;;;1.80;;
36377;SDS011;22402;42.746;23.606;2023-05-14T02:54:55;4.20;;;2.23;;
36377;SDS011;22402;42.746;23.606;2023-05-14T02:57:20;3.23;;;2.30;;
36377;SDS011;22402;42.746;23.606;2023-05-14T02:59:46;2.80;;;2.17;;
36377;SDS011;22402;42.746;23.606;2023-05-14T03:02:11;2.70;;;2.50;;
36377;SDS011;22402;42.746;23.606;2023-05-14T03:04:37;2.33;;;2.00;;
36377;SDS011;22402;42.746;23.606;2023-05-14T03:07:02;2.10;;;2.00;;
36377;SDS011;22402;42.746;23.606;2023-05-14T03:09:27;2.77;;;2.03;;
36377;SDS011;22402;42.746;23.606;2023-05-14T03:11:53;3.27;;;2.03;;
36377;SDS011;22402;42.746;23.606;2023-05-14T03:14:19;2.47;;;2.27;;
36377;SDS011;22402;42.746;23.606;2023-05-14T03:16:44;4.90;;;2.60;;
36377;SDS011;22402;42.746;23.606;2023-05-14T03:19:10;1.83;;;1.53;;
36377;SDS011;22402;42.746;23.606;2023-05-14T03:21:35;2.13;;;1.93;;
36377;SDS011;22402;42.746;23.606;2023-05-14T03:24:01;1.90;;;1.80;;
36377;SDS011;22402;42.746;23.606;2023-05-14T03:26:26;2.23;;;2.07;;
36377;SDS011;22402;42.746;23.606;2023-05-14T03:28:52;2.10;;;1.90;;
36377;SDS011;22402;42.746;23.606;2023-05-14T03:31:17;2.20;;;2.00;;
36377;SDS011;22402;42.746;23.606;2023-05-14T03:33:43;2.20;;;1.77;;
36377;SDS011;22402;42.746;23.606;2023-05-14T03:36:08;3.23;;;2.00;;
36377;SDS011;22402;42.746;23.606;2023-05-14T03:38:33;2.10;;;1.90;;
36377;SDS011;22402;42.746;23.606;2023-05-14T03:40:59;2.37;;;2.00;;
36377;SDS011;22402;42.746;23.606;2023-05-14T03:43:25;2.27;;;2.00;;
36377;SDS011;22402;42.746;23.606;2023-05-14T03:45:50;3.60;;;2.10;;
36377;SDS011;22402;42.746;23.606;2023-05-14T03:48:17;2.17;;;1.97;;
36377;SDS011;22402;42.746;23.606;2023-05-14T03:50:43;2.50;;;2.30;;
36377;SDS011;22402;42.746;23.606;2023-05-14T03:53:09;2.03;;;1.93;;
36377;SDS011;22402;42.746;23.606;2023-05-14T03:55:34;1.67;;;1.57;;
36377;SDS011;22402;42.746;23.606;2023-05-14T03:58:00;3.00;;;2.07;;
36377;SDS011;22402;42.746;23.606;2023-05-14T04:00:26;2.70;;;2.50;;
36377;SDS011;22402;42.746;23.606;2023-05-14T04:02:52;1.97;;;1.77;;
36377;SDS011;22402;42.746;23.606;2023-05-14T04:05:17;2.43;;;2.23;;
36377;SDS011;22402;42.746;23.606;2023-05-14T04:07:43;2.53;;;2.33;;
36377;SDS011;22402;42.746;23.606;2023-05-14T04:10:10;2.13;;;1.93;;
36377;SDS011;22402;42.746;23.606;2023-05-14T04:12:36;2.80;;;2.03;;
36377;SDS011;22402;42.746;23.606;2023-05-14T04:15:02;2.60;;;2.20;;
36377;SDS011;22402;42.746;23.606;2023-05-14T04:17:29;3.23;;;2.90;;
36377;SDS011;22402;42.746;23.606;2023-05-14T04:19:55;1.83;;;1.70;;
36377;SDS011;22402;42.746;23.606;2023-05-14T04:22:20;3.60;;;2.40;;
36377;SDS011;22402;42.746;23.606;2023-05-14T04:24:46;2.30;;;2.00;;
36377;SDS011;22402;42.746;23.606;2023-05-14T04:27:13;2.30;;;2.10;;
36377;SDS011;22402;42.746;23.606;2023-05-14T04:29:44;2.13;;;2.03;;
36377;SDS011;22402;42.746;23.606;2023-05-14T04:32:09;2.40;;;1.97;;
36377;SDS011;22402;42.746;23.606;2023-05-14T04:34:36;3.00;;;2.23;;
36377;SDS011;22402;42.746;23.606;2023-05-14T04:37:01;2.30;;;2.10;;
36377;SDS011;22402;42.746;23.606;2023-05-14T04:39:28;2.40;;;2.13;;
36377;SDS011;22402;42.746;23.606;2023-05-14T04:41:53;2.30;;;2.10;;
36377;SDS011;22402;42.746;23.606;2023-05-14T04:44:19;3.90;;;1.80;;
36377;SDS011;22402;42.746;23.606;2023-05-14T04:46:44;2.37;;;2.17;;
36377;SDS011;22402;42.746;23.606;2023-05-14T04:49:10;2.50;;;2.30;;
36377;SDS011;22402;42.746;23.606;2023-05-14T04:51:35;2.90;;;2.10;;
36377;SDS011;22402;42.746;23.606;2023-05-14T04:54:01;2.87;;;2.37;;
36377;SDS011;22402;42.746;23.606;2023-05-14T04:56:26;2.13;;;1.93;;
36377;SDS011;22402;42.746;23.606;2023-05-14T04:58:52;2.23;;;2.03;;
36377;SDS011;22402;42.746;23.606;2023-05-14T05:01:17;1.83;;;1.57;;
36377;SDS011;22402;42.746;23.606;2023-05-14T05:03:43;2.00;;;1.80;;
36377;SDS011;22402;42.746;23.606;2023-05-14T05:06:08;2.80;;;2.10;;
36377;SDS011;22402;42.746;23.606;2023-05-14T05:08:34;3.33;;;2.00;;
36377;SDS011;22402;42.746;23.606;2023-05-14T05:11:00;3.80;;;2.07;;
36377;SDS011;22402;42.746;23.606;2023-05-14T05:13:25;3.97;;;2.50;;
36377;SDS011;22402;42.746;23.606;2023-05-14T05:15:51;2.03;;;1.77;;
36377;SDS011;22402;42.746;23.606;2023-05-14T05:18:16;2.57;;;2.30;;
36377;SDS011;22402;42.746;23.606;2023-05-14T05:20:42;2.73;;;2.40;;
36377;SDS011;22402;42.746;23.606;2023-05-14T05:23:07;2.70;;;1.90;;
36377;SDS011;22402;42.746;23.606;2023-05-14T05:25:32;2.87;;;2.30;;
36377;SDS011;22402;42.746;23.606;2023-05-14T05:27:58;2.13;;;1.93;;
36377;SDS011;22402;42.746;23.606;2023-05-14T05:30:23;3.13;;;2.17;;
36377;SDS011;22402;42.746;23.606;2023-05-14T05:32:49;2.80;;;2.23;;
36377;SDS011;22402;42.746;23.606;2023-05-14T05:35:14;3.30;;;2.70;;
36377;SDS011;22402;42.746;23.606;2023-05-14T05:37:40;2.10;;;1.90;;
36377;SDS011;22402;42.746;23.606;2023-05-14T05:40:06;2.50;;;2.07;;
36377;SDS011;22402;42.746;23.606;2023-05-14T05:42:33;4.27;;;2.17;;
36377;SDS011;22402;42.746;23.606;2023-05-14T05:44:58;2.80;;;2.10;;
36377;SDS011;22402;42.746;23.606;2023-05-14T05:47:24;3.43;;;2.50;;
36377;SDS011;22402;42.746;23.606;2023-05-14T05:49:49;3.43;;;2.73;;
36377;SDS011;22402;42.746;23.606;2023-05-14T05:52:14;2.60;;;2.40;;
36377;SDS011;22402;42.746;23.606;2023-05-14T05:54:40;2.50;;;2.30;;
36377;SDS011;22402;42.746;23.606;2023-05-14T05:57:05;4.30;;;3.00;;
36377;SDS011;22402;42.746;23.606;2023-05-14T05:59:31;2.40;;;2.20;;
36377;SDS011;22402;42.746;23.606;2023-05-14T06:01:56;2.20;;;2.00;;
36377;SDS011;22402;42.746;23.606;2023-05-14T06:04:22;1.97;;;1.80;;
36377;SDS011;22402;42.746;23.606;2023-05-14T06:06:47;2.20;;;2.00;;
36377;SDS011;22402;42.746;23.606;2023-05-14T06:09:13;2.53;;;2.33;;
36377;SDS011;22402;42.746;23.606;2023-05-14T06:11:38;4.70;;;2.60;;
36377;SDS011;22402;42.746;23.606;2023-05-14T06:14:03;2.03;;;1.93;;
36377;SDS011;22402;42.746;23.606;2023-05-14T06:16:29;2.70;;;2.43;;
36377;SDS011;22402;42.746;23.606;2023-05-14T06:18:55;2.80;;;2.50;;
36377;SDS011;22402;42.746;23.606;2023-05-14T06:21:21;3.10;;;2.53;;
36377;SDS011;22402;42.746;23.606;2023-05-14T06:23:46;2.70;;;2.50;;
36377;SDS011;22402;42.746;23.606;2023-05-14T06:26:12;2.70;;;2.50;;
36377;SDS011;22402;42.746;23.606;2023-05-14T06:28:37;2.50;;;2.30;;
36377;SDS011;22402;42.746;23.606;2023-05-14T06:31:03;2.67;;;2.30;;
36377;SDS011;22402;42.746;23.606;2023-05-14T06:33:28;2.83;;;2.60;;
36377;SDS011;22402;42.746;23.606;2023-05-14T06:35:58;3.20;;;2.33;;
36377;SDS011;22402;42.746;23.606;2023-05-14T06:38:24;2.47;;;2.27;;
36377;SDS011;22402;42.746;23.606;2023-05-14T06:40:50;2.50;;;2.30;;
36377;SDS011;22402;42.746;23.606;2023-05-14T06:43:17;2.50;;;1.93;;
36377;SDS011;22402;42.746;23.606;2023-05-14T06:45:42;4.00;;;2.43;;
36377;SDS011;22402;42.746;23.606;2023-05-14T06:48:08;3.80;;;2.47;;
36377;SDS011;22402;42.746;23.606;2023-05-14T06:50:34;3.50;;;2.80;;
36377;SDS011;22402;42.746;23.606;2023-05-14T06:53:00;2.83;;;2.57;;
36377;SDS011;22402;42.746;23.606;2023-05-14T06:55:25;4.03;;;2.67;;
36377;SDS011;22402;42.746;23.606;2023-05-14T06:57:51;3.00;;;2.73;;
36377;SDS011;22402;42.746;23.606;2023-05-14T07:00:16;4.00;;;2.50;;
36377;SDS011;22402;42.746;23.606;2023-05-14T07:02:42;3.37;;;2.50;;
36377;SDS011;22402;42.746;23.606;2023-05-14T07:05:09;3.33;;;3.03;;
36377;SDS011;22402;42.746;23.606;2023-05-14T07:07:35;3.07;;;2.77;;
36377;SDS011;22402;42.746;23.606;2023-05-14T07:10:00;3.20;;;2.90;;
36377;SDS011;22402;42.746;23.606;2023-05-14T07:12:26;3.67;;;3.20;;
36377;SDS011;22402;42.746;23.606;2023-05-14T07:14:51;3.50;;;3.20;;
36377;SDS011;22402;42.746;23.606;2023-05-14T07:17:17;4.80;;;3.60;;
36377;SDS011;22402;42.746;23.606;2023-05-14T07:19:42;4.27;;;3.07;;
36377;SDS011;22402;42.746;23.606;2023-05-14T07:22:08;3.77;;;2.53;;
36377;SDS011;22402;42.746;23.606;2023-05-14T07:24:33;3.20;;;2.90;;
36377;SDS011;22402;42.746;23.606;2023-05-14T07:26:59;3.17;;;2.80;;
36377;SDS011;22402;42.746;23.606;2023-05-14T07:29:25;4.97;;;2.93;;
36377;SDS011;22402;42.746;23.606;2023-05-14T07:31:51;4.80;;;2.93;;
36377;SDS011;22402;42.746;23.606;2023-05-14T07:34:17;3.77;;;2.60;;
36377;SDS011;22402;42.746;23.606;2023-05-14T07:36:42;4.43;;;3.40;;
36377;SDS011;22402;42.746;23.606;2023-05-14T07:39:08;5.60;;;3.33;;
36377;SDS011;22402;42.746;23.606;2023-05-14T07:41:33;15.40;;;3.17;;
36377;SDS011;22402;42.746;23.606;2023-05-14T07:43:59;3.50;;;3.20;;
36377;SDS011;22402;42.746;23.606;2023-05-14T07:46:24;5.80;;;3.57;;
36377;SDS011;22402;42.746;23.606;2023-05-14T07:48:50;9.93;;;3.97;;
36377;SDS011;22402;42.746;23.606;2023-05-14T07:51:15;5.20;;;3.30;;
36377;SDS011;22402;42.746;23.606;2023-05-14T07:53:41;3.97;;;3.50;;
36377;SDS011;22402;42.746;23.606;2023-05-14T07:56:06;6.53;;;3.83;;
36377;SDS011;22402;42.746;23.606;2023-05-14T07:58:32;4.00;;;3.57;;
36377;SDS011;22402;42.746;23.606;2023-05-14T08:00:59;5.60;;;3.90;;
36377;SDS011;22402;42.746;23.606;2023-05-14T08:03:25;5.80;;;4.13;;
36377;SDS011;22402;42.746;23.606;2023-05-14T08:05:50;4.00;;;3.43;;
36377;SDS011;22402;42.746;23.606;2023-05-14T08:08:16;4.53;;;3.50;;
36377;SDS011;22402;42.746;23.606;2023-05-14T08:10:42;9.33;;;3.47;;
36377;SDS011;22402;42.746;23.606;2023-05-14T08:13:07;5.47;;;4.03;;
36377;SDS011;22402;42.746;23.606;2023-05-14T08:15:32;4.37;;;3.20;;
36377;SDS011;22402;42.746;23.606;2023-05-14T08:17:58;4.47;;;3.43;;
36377;SDS011;22402;42.746;23.606;2023-05-14T08:20:27;4.83;;;3.50;;
36377;SDS011;22402;42.746;23.606;2023-05-14T08:22:56;7.27;;;4.00;;
36377;SDS011;22402;42.746;23.606;2023-05-14T08:25:22;3.63;;;3.30;;
36377;SDS011;22402;42.746;23.606;2023-05-14T08:27:48;4.27;;;3.87;;
36377;SDS011;22402;42.746;23.606;2023-05-14T08:30:14;4.10;;;3.70;;
36377;SDS011;22402;42.746;23.606;2023-05-14T08:32:39;5.30;;;4.07;;
36377;SDS011;22402;42.746;23.606;2023-05-14T08:35:05;4.40;;;3.30;;
36377;SDS011;22402;42.746;23.606;2023-05-14T08:37:31;3.77;;;3.47;;
36377;SDS011;22402;42.746;23.606;2023-05-14T08:39:56;6.37;;;4.17;;
36377;SDS011;22402;42.746;23.606;2023-05-14T08:42:22;4.73;;;3.40;;
36377;SDS011;22402;42.746;23.606;2023-05-14T08:44:52;5.87;;;3.57;;
36377;SDS011;22402;42.746;23.606;2023-05-14T08:47:21;5.43;;;4.30;;
36377;SDS011;22402;42.746;23.606;2023-05-14T08:49:51;5.83;;;4.10;;
36377;SDS011;22402;42.746;23.606;2023-05-14T08:52:22;5.10;;;4.30;;
36377;SDS011;22402;42.746;23.606;2023-05-14T08:54:47;6.70;;;4.00;;
36377;SDS011;22402;42.746;23.606;2023-05-14T08:57:15;3.37;;;3.10;;
36377;SDS011;22402;42.746;23.606;2023-05-14T08:59:42;5.20;;;3.60;;
36377;SDS011;22402;42.746;23.606;2023-05-14T09:02:07;12.03;;;4.17;;
36377;SDS011;22402;42.746;23.606;2023-05-14T09:04:37;4.33;;;3.93;;
36377;SDS011;22402;42.746;23.606;2023-05-14T09:07:03;8.27;;;4.13;;
36377;SDS011;22402;42.746;23.606;2023-05-14T09:09:31;8.27;;;3.27;;
36377;SDS011;22402;42.746;23.606;2023-05-14T09:11:56;4.63;;;3.27;;
36377;SDS011;22402;42.746;23.606;2023-05-14T09:14:22;5.33;;;4.20;;
36377;SDS011;22402;42.746;23.606;2023-05-14T09:16:48;10.00;;;3.10;;
36377;SDS011;22402;42.746;23.606;2023-05-14T09:19:15;10.03;;;3.80;;
36377;SDS011;22402;42.746;23.606;2023-05-14T09:21:43;5.20;;;3.33;;
36377;SDS011;22402;42.746;23.606;2023-05-14T09:24:09;6.07;;;3.40;;
36377;SDS011;22402;42.746;23.606;2023-05-14T09:26:44;4.73;;;3.00;;
36377;SDS011;22402;42.746;23.606;2023-05-14T09:29:14;3.73;;;3.33;;
36377;SDS011;22402;42.746;23.606;2023-05-14T09:31:40;4.13;;;3.73;;
36377;SDS011;22402;42.746;23.606;2023-05-14T09:34:05;6.10;;;4.23;;
36377;SDS011;22402;42.746;23.606;2023-05-14T09:36:31;4.37;;;2.97;;
36377;SDS011;22402;42.746;23.606;2023-05-14T09:38:59;5.40;;;3.63;;
36377;SDS011;22402;42.746;23.606;2023-05-14T09:41:24;6.00;;;3.60;;
36377;SDS011;22402;42.746;23.606;2023-05-14T09:43:50;4.37;;;3.00;;
36377;SDS011;22402;42.746;23.606;2023-05-14T09:46:16;11.50;;;4.93;;
36377;SDS011;22402;42.746;23.606;2023-05-14T09:48:41;7.30;;;4.17;;
36377;SDS011;22402;42.746;23.606;2023-05-14T09:51:08;11.30;;;4.50;;
36377;SDS011;22402;42.746;23.606;2023-05-14T09:53:35;6.00;;;3.20;;
36377;SDS011;22402;42.746;23.606;2023-05-14T09:56:01;5.20;;;3.43;;
36377;SDS011;22402;42.746;23.606;2023-05-14T09:58:26;5.73;;;3.50;;
36377;SDS011;22402;42.746;23.606;2023-05-14T10:00:53;6.80;;;3.30;;
36377;SDS011;22402;42.746;23.606;2023-05-14T10:03:21;5.03;;;3.93;;
36377;SDS011;22402;42.746;23.606;2023-05-14T10:05:49;5.80;;;3.80;;
36377;SDS011;22402;42.746;23.606;2023-05-14T10:10:47;8.17;;;4.00;;
36377;SDS011;22402;42.746;23.606;2023-05-14T10:13:18;5.40;;;3.73;;
36377;SDS011;22402;42.746;23.606;2023-05-14T10:18:30;5.43;;;3.40;;
36377;SDS011;22402;42.746;23.606;2023-05-14T10:21:04;5.90;;;3.93;;
36377;SDS011;22402;42.746;23.606;2023-05-14T10:23:30;5.27;;;3.37;;
36377;SDS011;22402;42.746;23.606;2023-05-14T10:25:59;5.37;;;2.90;;
36377;SDS011;22402;42.746;23.606;2023-05-14T10:28:25;5.90;;;3.30;;
36377;SDS011;22402;42.746;23.606;2023-05-14T10:30:52;3.90;;;3.00;;
36377;SDS011;22402;42.746;23.606;2023-05-14T10:33:18;6.20;;;3.47;;
36377;SDS011;22402;42.746;23.606;2023-05-14T10:38:29;7.47;;;4.20;;
36377;SDS011;22402;42.746;23.606;2023-05-14T10:41:09;4.80;;;3.40;;
36377;SDS011;22402;42.746;23.606;2023-05-14T10:43:37;5.93;;;3.23;;
36377;SDS011;22402;42.746;23.606;2023-05-14T10:46:04;5.47;;;3.40;;
36377;SDS011;22402;42.746;23.606;2023-05-14T10:48:31;3.83;;;3.27;;
36377;SDS011;22402;42.746;23.606;2023-05-14T10:50:57;3.23;;;2.90;;
36377;SDS011;22402;42.746;23.606;2023-05-14T10:53:30;5.10;;;3.17;;
36377;SDS011;22402;42.746;23.606;2023-05-14T10:56:12;16.83;;;4.70;;
36377;SDS011;22402;42.746;23.606;2023-05-14T10:58:39;7.70;;;5.37;;
36377;SDS011;22402;42.746;23.606;2023-05-14T11:01:07;8.10;;;4.90;;
36377;SDS011;22402;42.746;23.606;2023-05-14T11:03:38;7.90;;;4.13;;
36377;SDS011;22402;42.746;23.606;2023-05-14T11:06:07;15.90;;;4.40;;
36377;SDS011;22402;42.746;23.606;2023-05-14T11:08:34;7.40;;;4.27;;
36377;SDS011;22402;42.746;23.606;2023-05-14T11:11:00;8.80;;;5.57;;
36377;SDS011;22402;42.746;23.606;2023-05-14T11:13:26;13.63;;;5.10;;
36377;SDS011;22402;42.746;23.606;2023-05-14T11:15:52;5.43;;;3.90;;
36377;SDS011;22402;42.746;23.606;2023-05-14T11:18:30;5.87;;;4.20;;
36377;SDS011;22402;42.746;23.606;2023-05-14T11:21:04;9.80;;;4.33;;
36377;SDS011;22402;42.746;23.606;2023-05-14T11:23:30;5.43;;;3.90;;
36377;SDS011;22402;42.746;23.606;2023-05-14T11:25:56;5.60;;;4.30;;
36377;SDS011;22402;42.746;23.606;2023-05-14T11:28:22;5.50;;;3.60;;
36377;SDS011;22402;42.746;23.606;2023-05-14T11:30:49;6.10;;;4.00;;
36377;SDS011;22402;42.746;23.606;2023-05-14T11:33:16;3.90;;;3.20;;
36377;SDS011;22402;42.746;23.606;2023-05-14T11:35:42;5.47;;;4.10;;
36377;SDS011;22402;42.746;23.606;2023-05-14T11:38:16;5.10;;;3.70;;
36377;SDS011;22402;42.746;23.606;2023-05-14T11:40:51;5.03;;;3.30;;
36377;SDS011;22402;42.746;23.606;2023-05-14T11:43:20;6.33;;;3.93;;
36377;SDS011;22402;42.746;23.606;2023-05-14T11:45:53;5.80;;;3.50;;
36377;SDS011;22402;42.746;23.606;2023-05-14T11:48:19;6.30;;;4.43;;
36377;SDS011;22402;42.746;23.606;2023-05-14T11:50:49;45.13;;;27.40;;
36377;SDS011;22402;42.746;23.606;2023-05-14T11:53:20;19.30;;;12.73;;
36377;SDS011;22402;42.746;23.606;2023-05-14T11:55:50;12.07;;;9.30;;
36377;SDS011;22402;42.746;23.606;2023-05-14T11:58:18;8.00;;;7.07;;
36377;SDS011;22402;42.746;23.606;2023-05-14T12:00:44;7.77;;;6.13;;
36377;SDS011;22402;42.746;23.606;2023-05-14T12:03:10;12.03;;;6.47;;
36377;SDS011;22402;42.746;23.606;2023-05-14T12:05:36;9.03;;;5.13;;
36377;SDS011;22402;42.746;23.606;2023-05-14T12:08:17;11.43;;;5.90;;
36377;SDS011;22402;42.746;23.606;2023-05-14T12:10:44;7.17;;;4.90;;
36377;SDS011;22402;42.746;23.606;2023-05-14T12:13:09;5.50;;;5.00;;
36377;SDS011;22402;42.746;23.606;2023-05-14T12:15:38;8.33;;;4.60;;
36377;SDS011;22402;42.746;23.606;2023-05-14T12:18:07;8.07;;;4.70;;
36377;SDS011;22402;42.746;23.606;2023-05-14T12:20:33;7.70;;;5.07;;
36377;SDS011;22402;42.746;23.606;2023-05-14T12:22:58;6.60;;;4.90;;
36377;SDS011;22402;42.746;23.606;2023-05-14T12:25:24;6.27;;;4.13;;
36377;SDS011;22402;42.746;23.606;2023-05-14T12:27:51;5.30;;;4.03;;
36377;SDS011;22402;42.746;23.606;2023-05-14T12:30:16;7.77;;;4.27;;
36377;SDS011;22402;42.746;23.606;2023-05-14T12:32:42;6.00;;;4.53;;
36377;SDS011;22402;42.746;23.606;2023-05-14T12:35:07;6.63;;;4.10;;
36377;SDS011;22402;42.746;23.606;2023-05-14T12:37:33;8.20;;;4.33;;
36377;SDS011;22402;42.746;23.606;2023-05-14T12:40:02;5.67;;;3.90;;
36377;SDS011;22402;42.746;23.606;2023-05-14T12:42:28;4.60;;;3.50;;
36377;SDS011;22402;42.746;23.606;2023-05-14T12:44:54;5.73;;;3.60;;
36377;SDS011;22402;42.746;23.606;2023-05-14T12:47:19;9.53;;;3.80;;
36377;SDS011;22402;42.746;23.606;2023-05-14T12:49:45;7.13;;;4.10;;
36377;SDS011;22402;42.746;23.606;2023-05-14T12:52:10;7.87;;;3.50;;
36377;SDS011;22402;42.746;23.606;2023-05-14T12:54:36;4.60;;;4.07;;
36377;SDS011;22402;42.746;23.606;2023-05-14T12:57:04;5.03;;;4.00;;
36377;SDS011;22402;42.746;23.606;2023-05-14T12:59:29;4.50;;;3.23;;
36377;SDS011;22402;42.746;23.606;2023-05-14T13:01:55;7.57;;;3.80;;
36377;SDS011;22402;42.746;23.606;2023-05-14T13:04:20;5.43;;;3.97;;
36377;SDS011;22402;42.746;23.606;2023-05-14T13:06:46;3.67;;;3.37;;
36377;SDS011;22402;42.746;23.606;2023-05-14T13:09:11;5.17;;;3.17;;
36377;SDS011;22402;42.746;23.606;2023-05-14T13:11:37;4.63;;;3.60;;
36377;SDS011;22402;42.746;23.606;2023-05-14T13:14:02;4.23;;;3.50;;
36377;SDS011;22402;42.746;23.606;2023-05-14T13:16:28;5.30;;;3.10;;
36377;SDS011;22402;42.746;23.606;2023-05-14T13:18:54;3.60;;;3.10;;
36377;SDS011;22402;42.746;23.606;2023-05-14T13:21:19;6.53;;;3.67;;
36377;SDS011;22402;42.746;23.606;2023-05-14T13:23:45;4.33;;;3.00;;
36377;SDS011;22402;42.746;23.606;2023-05-14T13:26:11;4.50;;;3.90;;
36377;SDS011;22402;42.746;23.606;2023-05-14T13:28:38;6.30;;;3.50;;
36377;SDS011;22402;42.746;23.606;2023-05-14T13:31:04;3.47;;;3.17;;
36377;SDS011;22402;42.746;23.606;2023-05-14T13:33:33;5.07;;;4.20;;
36377;SDS011;22402;42.746;23.606;2023-05-14T13:36:00;6.57;;;3.50;;
36377;SDS011;22402;42.746;23.606;2023-05-14T13:38:26;3.40;;;3.10;;
36377;SDS011;22402;42.746;23.606;2023-05-14T13:40:51;4.17;;;3.57;;
36377;SDS011;22402;42.746;23.606;2023-05-14T13:43:18;5.30;;;3.73;;
36377;SDS011;22402;42.746;23.606;2023-05-14T13:45:44;6.07;;;4.37;;
36377;SDS011;22402;42.746;23.606;2023-05-14T13:48:09;4.30;;;3.60;;
36377;SDS011;22402;42.746;23.606;2023-05-14T13:50:35;3.40;;;3.10;;
36377;SDS011;22402;42.746;23.606;2023-05-14T13:53:00;3.90;;;3.37;;
36377;SDS011;22402;42.746;23.606;2023-05-14T13:55:26;5.40;;;3.97;;
36377;SDS011;22402;42.746;23.606;2023-05-14T13:57:51;4.70;;;4.03;;
36377;SDS011;22402;42.746;23.606;2023-05-14T14:00:17;4.43;;;3.50;;
36377;SDS011;22402;42.746;23.606;2023-05-14T14:02:42;5.83;;;3.63;;
36377;SDS011;22402;42.746;23.606;2023-05-14T14:05:08;3.57;;;3.20;;
36377;SDS011;22402;42.746;23.606;2023-05-14T14:07:34;3.20;;;2.90;;
36377;SDS011;22402;42.746;23.606;2023-05-14T14:09:59;5.30;;;4.40;;
36377;SDS011;22402;42.746;23.606;2023-05-14T14:12:25;4.70;;;3.77;;
36377;SDS011;22402;42.746;23.606;2023-05-14T14:14:51;5.10;;;3.93;;
36377;SDS011;22402;42.746;23.606;2023-05-14T14:17:17;4.50;;;4.10;;
36377;SDS011;22402;42.746;23.606;2023-05-14T14:19:42;6.17;;;3.90;;
36377;SDS011;22402;42.746;23.606;2023-05-14T14:22:08;8.13;;;4.03;;
36377;SDS011;22402;42.746;23.606;2023-05-14T14:24:33;5.47;;;3.87;;
36377;SDS011;22402;42.746;23.606;2023-05-14T14:26:59;4.10;;;3.50;;
36377;SDS011;22402;42.746;23.606;2023-05-14T14:29:26;5.50;;;4.50;;
36377;SDS011;22402;42.746;23.606;2023-05-14T14:31:52;8.40;;;4.03;;
36377;SDS011;22402;42.746;23.606;2023-05-14T14:34:18;6.23;;;4.20;;
36377;SDS011;22402;42.746;23.606;2023-05-14T14:36:43;5.97;;;4.03;;
36377;SDS011;22402;42.746;23.606;2023-05-14T14:39:09;4.30;;;3.90;;
36377;SDS011;22402;42.746;23.606;2023-05-14T14:41:35;7.03;;;4.73;;
36377;SDS011;22402;42.746;23.606;2023-05-14T14:44:00;5.23;;;3.90;;
36377;SDS011;22402;42.746;23.606;2023-05-14T14:46:26;5.20;;;4.70;;
36377;SDS011;22402;42.746;23.606;2023-05-14T14:48:52;4.73;;;3.73;;